createdAt,value
2019-02-04T00:01:01.308Z,18.97
2019-02-04T00:03:30.348Z,15.17
2019-02-04T00:05:59.333Z,11.13
2019-02-04T00:08:28.828Z,21.57
2019-02-04T00:10:59.359Z,18.00
2019-02-04T00:13:28.513Z,15.93
2019-02-04T00:15:57.499Z,16.67
2019-02-04T00:18:26.527Z,18.70
2019-02-04T00:20:56.015Z,15.83
2019-02-04T00:23:25.011Z,14.73
2019-02-04T00:25:54.039Z,17.60
2019-02-04T00:28:23.030Z,12.00
2019-02-04T00:30:51.959Z,16.57
2019-02-04T00:33:20.958Z,18.23
2019-02-04T00:35:49.896Z,17.53
2019-02-04T00:38:18.915Z,19.37
2019-02-04T00:40:47.844Z,16.17
2019-02-04T00:43:16.780Z,17.47
2019-02-04T00:45:45.842Z,19.00
2019-02-04T00:48:14.844Z,14.50
2019-02-04T00:50:43.770Z,20.97
2019-02-04T00:53:12.771Z,18.97
2019-02-04T00:55:41.777Z,22.70
2019-02-04T00:58:10.763Z,21.93
2019-02-04T01:00:39.857Z,17.23
2019-02-04T01:03:09.020Z,15.97
2019-02-04T01:05:37.924Z,14.27
2019-02-04T01:08:07.012Z,17.70
2019-02-04T01:10:36.105Z,16.40
2019-02-04T01:13:05.278Z,14.57
2019-02-04T01:15:34.287Z,15.53
2019-02-04T01:18:03.288Z,15.87
2019-02-04T01:20:32.738Z,11.43
2019-02-04T01:23:01.728Z,16.63
2019-02-04T01:25:30.797Z,13.60
2019-02-04T01:27:59.823Z,22.07
2019-02-04T01:30:28.823Z,21.10
2019-02-04T01:32:57.857Z,15.27
2019-02-04T01:35:27.285Z,14.43
2019-02-04T01:37:56.291Z,16.60
2019-02-04T01:40:25.972Z,19.97
2019-02-04T01:42:55.337Z,16.97
2019-02-04T01:45:24.595Z,17.10
2019-02-04T01:47:53.572Z,15.80
2019-02-04T01:50:24.177Z,17.57
2019-02-04T01:52:53.086Z,18.87
2019-02-04T01:55:22.099Z,13.77
2019-02-04T01:57:53.061Z,16.37
2019-02-04T02:00:33.786Z,16.47
2019-02-04T02:03:02.826Z,17.50
2019-02-04T02:05:31.907Z,12.33
2019-02-04T02:08:01.003Z,12.57
2019-02-04T02:10:30.425Z,12.80
2019-02-04T02:12:59.408Z,14.20
2019-02-04T02:15:28.466Z,13.60
2019-02-04T02:17:57.420Z,14.00
2019-02-04T02:20:28.985Z,17.93
2019-02-04T02:22:58.007Z,17.13
2019-02-04T02:25:27.066Z,16.80
2019-02-04T02:27:56.151Z,15.93
2019-02-04T02:30:31.219Z,13.90
2019-02-04T02:33:00.315Z,14.17
2019-02-04T02:35:29.321Z,24.00
2019-02-04T02:37:58.308Z,15.37
2019-02-04T02:40:32.398Z,18.27
2019-02-04T02:43:01.710Z,17.40
2019-02-04T02:45:31.107Z,14.67
2019-02-04T02:48:00.556Z,16.73
2019-02-04T02:50:29.468Z,10.70
2019-02-04T02:52:58.499Z,12.97
2019-02-04T02:55:27.618Z,13.83
2019-02-04T02:57:57.172Z,14.90
2019-02-04T03:00:27.785Z,16.70
2019-02-04T03:02:57.198Z,16.50
2019-02-04T03:05:26.330Z,12.50
2019-02-04T03:07:55.479Z,13.83
2019-02-04T03:10:29.865Z,11.33
2019-02-04T03:12:59.008Z,17.27
2019-02-04T03:15:28.174Z,12.13
2019-02-04T03:17:57.266Z,15.83
2019-02-04T03:20:26.329Z,13.67
2019-02-04T03:22:55.413Z,14.43
2019-02-04T03:25:24.792Z,11.23
2019-02-04T03:27:53.724Z,11.97
2019-02-04T03:30:28.011Z,11.73
2019-02-04T03:32:57.103Z,15.10
2019-02-04T03:35:26.641Z,13.47
2019-02-04T03:37:55.645Z,16.23
2019-02-04T03:40:27.296Z,14.77
2019-02-04T03:42:56.288Z,10.87
2019-02-04T03:45:25.448Z,17.27
2019-02-04T03:48:04.272Z,17.87
2019-02-04T03:50:25.339Z,14.57
2019-02-04T03:52:54.622Z,14.50
2019-02-04T03:55:23.766Z,16.73
2019-02-04T03:57:52.835Z,14.67
2019-02-04T04:00:24.390Z,15.07
2019-02-04T04:02:53.603Z,14.60
2019-02-04T04:05:22.610Z,22.27
2019-02-04T04:07:53.392Z,15.73
2019-02-04T04:10:22.496Z,18.17
2019-02-04T04:12:51.575Z,15.00
2019-02-04T04:15:20.791Z,21.43
2019-02-04T04:17:57.270Z,18.67
2019-02-04T04:20:26.406Z,20.80
2019-02-04T04:22:55.599Z,15.83
2019-02-04T04:25:24.575Z,14.47
2019-02-04T04:27:53.530Z,21.17
2019-02-04T04:30:24.695Z,18.87
2019-02-04T04:32:54.340Z,21.57
2019-02-04T04:35:23.922Z,18.03
2019-02-04T04:37:53.548Z,20.20
2019-02-04T04:40:22.903Z,21.63
2019-02-04T04:42:51.933Z,21.60
2019-02-04T04:45:22.641Z,27.60
2019-02-04T04:47:52.095Z,23.97
2019-02-04T04:50:21.181Z,25.97
2019-02-04T04:52:50.727Z,20.60
2019-02-04T04:55:24.554Z,28.03
2019-02-04T04:57:53.593Z,19.90
2019-02-04T05:00:25.003Z,20.77
2019-02-04T05:02:54.144Z,25.30
2019-02-04T05:05:23.191Z,28.60
2019-02-04T05:07:52.356Z,25.87
2019-02-04T05:10:21.765Z,24.63
2019-02-04T05:12:50.939Z,25.33
2019-02-04T05:15:22.307Z,21.03
2019-02-04T05:17:52.631Z,24.97
2019-02-04T05:20:22.314Z,26.53
2019-02-04T05:22:51.523Z,25.03
2019-02-04T05:25:20.706Z,28.47
2019-02-04T05:27:50.011Z,27.77
2019-02-04T05:30:20.773Z,24.57
2019-02-04T05:32:49.804Z,25.57
2019-02-04T05:35:18.905Z,22.17
2019-02-04T05:37:48.132Z,25.77
2019-02-04T05:40:17.471Z,19.73
2019-02-04T05:42:47.416Z,30.43
2019-02-04T05:45:17.780Z,28.63
2019-02-04T05:47:47.043Z,28.53
2019-02-04T05:50:17.970Z,26.90
2019-02-04T05:52:49.305Z,35.83
2019-02-04T05:55:19.833Z,30.43
2019-02-04T05:57:48.953Z,27.70
2019-02-04T06:00:23.339Z,28.93
2019-02-04T06:02:52.403Z,34.40
2019-02-04T06:05:21.773Z,36.60
2019-02-04T06:07:50.965Z,32.60
2019-02-04T06:10:20.345Z,29.43
2019-02-04T06:12:49.279Z,28.70
2019-02-04T06:15:18.484Z,28.50
2019-02-04T06:17:47.493Z,36.03
2019-02-04T06:20:18.089Z,41.67
2019-02-04T06:22:47.003Z,28.13
2019-02-04T06:25:16.143Z,31.50
2019-02-04T06:27:45.127Z,31.67
2019-02-04T06:30:14.319Z,33.50
2019-02-04T06:32:43.396Z,35.50
2019-02-04T06:35:13.097Z,34.43
2019-02-04T06:37:42.207Z,62.07
2019-02-04T06:40:12.170Z,37.93
2019-02-04T06:42:41.431Z,34.40
2019-02-04T06:45:12.107Z,37.17
2019-02-04T06:47:41.190Z,32.60
2019-02-04T06:50:12.301Z,27.47
2019-02-04T06:52:41.683Z,26.70
2019-02-04T06:55:13.957Z,33.10
2019-02-04T06:57:42.994Z,26.47
2019-02-04T07:00:13.145Z,30.17
2019-02-04T07:02:42.151Z,30.77
2019-02-04T07:05:11.316Z,33.63
2019-02-04T07:07:40.422Z,35.20
2019-02-04T07:10:12.992Z,28.73
2019-02-04T07:12:42.019Z,37.37
2019-02-04T07:15:11.364Z,28.33
2019-02-04T07:17:40.372Z,31.13
2019-02-04T07:20:12.629Z,31.63
2019-02-04T07:22:41.693Z,26.37
2019-02-04T07:25:12.019Z,24.93
2019-02-04T07:27:41.001Z,25.27
2019-02-04T07:30:13.307Z,32.27
2019-02-04T07:32:42.397Z,27.30
2019-02-04T07:35:12.948Z,26.63
2019-02-04T07:37:42.020Z,24.30
2019-02-04T07:40:14.711Z,25.60
2019-02-04T07:42:43.859Z,27.60
2019-02-04T07:45:13.180Z,36.67
2019-02-04T07:47:42.368Z,30.47
2019-02-04T07:50:11.519Z,29.77
2019-02-04T07:52:40.676Z,82.50
2019-02-04T07:55:10.062Z,31.97
2019-02-04T07:57:39.196Z,89.00
2019-02-04T08:00:15.908Z,61.23
2019-02-04T08:02:45.324Z,49.73
2019-02-04T08:05:14.481Z,45.70
2019-02-04T08:07:43.616Z,61.73
2019-02-04T08:10:12.764Z,70.77
2019-02-04T08:12:41.774Z,35.13
2019-02-04T08:15:16.127Z,93.93
2019-02-04T08:17:45.187Z,94.17
2019-02-04T08:20:14.329Z,121.70
2019-02-04T08:22:43.463Z,175.37
2019-02-04T08:25:13.160Z,160.13
2019-02-04T08:27:42.238Z,80.33
2019-02-04T08:30:18.425Z,105.27
2019-02-04T08:32:47.538Z,84.57
2019-02-04T08:35:18.716Z,70.50
2019-02-04T08:37:47.840Z,47.87
2019-02-04T08:40:16.969Z,70.87
2019-02-04T08:42:46.101Z,57.17
2019-02-04T08:45:15.603Z,54.50
2019-02-04T08:47:44.677Z,24.83
2019-02-04T08:50:15.955Z,52.40
2019-02-04T08:52:45.103Z,68.93
2019-02-04T08:55:14.304Z,52.43
2019-02-04T08:57:43.425Z,49.13
2019-02-04T09:00:16.126Z,31.03
2019-02-04T09:02:45.241Z,32.73
2019-02-04T09:05:14.757Z,47.97
2019-02-04T09:07:44.495Z,46.50
2019-02-04T09:10:19.600Z,74.03
2019-02-04T09:12:48.618Z,35.13
2019-02-04T09:15:18.258Z,26.43
2019-02-04T09:17:47.349Z,35.13
2019-02-04T09:20:17.162Z,27.97
2019-02-04T09:22:46.268Z,49.73
2019-02-04T09:25:16.171Z,25.07
2019-02-04T09:27:45.239Z,20.80
2019-02-04T09:30:16.975Z,31.47
2019-02-04T09:32:46.337Z,28.50
2019-02-04T09:35:16.329Z,63.20
2019-02-04T09:37:45.320Z,24.17
2019-02-04T09:40:23.844Z,35.73
2019-02-04T09:42:52.942Z,23.60
2019-02-04T09:45:24.373Z,27.47
2019-02-04T09:47:52.838Z,34.97
2019-02-04T09:50:22.923Z,28.10
2019-02-04T09:52:52.029Z,22.20
2019-02-04T09:55:23.338Z,35.83
2019-02-04T09:57:52.508Z,38.30
2019-02-04T10:00:23.862Z,41.20
2019-02-04T10:02:53.056Z,20.03
2019-02-04T10:05:22.137Z,26.63
2019-02-04T10:07:51.314Z,34.53
2019-02-04T10:10:23.009Z,29.70
2019-02-04T10:12:52.560Z,35.57
2019-02-04T10:15:24.374Z,39.80
2019-02-04T10:17:53.370Z,34.83
2019-02-04T10:20:33.036Z,41.47
2019-02-04T10:22:53.273Z,32.47
2019-02-04T10:25:24.285Z,26.77
2019-02-04T10:27:53.241Z,23.83
2019-02-04T10:30:22.939Z,24.83
2019-02-04T10:32:52.070Z,40.53
2019-02-04T10:35:21.209Z,40.00
2019-02-04T10:37:51.105Z,33.40
2019-02-04T10:40:21.675Z,21.93
2019-02-04T10:42:50.814Z,27.43
2019-02-04T10:45:20.112Z,64.30
2019-02-04T10:47:49.368Z,29.57
2019-02-04T10:50:26.861Z,29.87
2019-02-04T10:52:55.908Z,33.10
2019-02-04T10:55:25.133Z,30.83
2019-02-04T10:57:54.581Z,60.37
2019-02-04T11:00:26.178Z,33.50
2019-02-04T11:02:55.371Z,48.60
2019-02-04T11:05:27.361Z,28.30
2019-02-04T11:07:56.489Z,25.00
2019-02-04T11:10:30.867Z,27.57
2019-02-04T11:13:00.154Z,22.67
2019-02-04T11:15:29.189Z,30.90
2019-02-04T11:17:58.582Z,28.10
2019-02-04T11:20:28.701Z,29.73
2019-02-04T11:22:58.288Z,27.37
2019-02-04T11:25:27.321Z,31.83
2019-02-04T11:27:56.530Z,58.63
2019-02-04T11:30:37.340Z,34.97
2019-02-04T11:33:07.113Z,37.33
2019-02-04T11:35:36.237Z,27.20
2019-02-04T11:38:05.385Z,22.33
2019-02-04T11:40:36.197Z,23.73
2019-02-04T11:43:05.504Z,27.57
2019-02-04T11:45:34.836Z,23.37
2019-02-04T11:48:06.241Z,20.57
2019-02-04T11:50:35.289Z,22.53
2019-02-04T11:53:04.533Z,18.50
2019-02-04T11:55:33.547Z,23.33
2019-02-04T11:58:02.928Z,22.50
2019-02-04T12:00:32.151Z,23.47
2019-02-04T12:03:02.060Z,24.33
2019-02-04T12:05:31.528Z,26.17
2019-02-04T12:08:00.570Z,22.73
2019-02-04T12:10:32.526Z,22.57
2019-02-04T12:13:01.955Z,24.10
2019-02-04T12:15:31.025Z,20.33
2019-02-04T12:18:00.141Z,21.23
2019-02-04T12:20:29.171Z,24.10
2019-02-04T12:22:58.200Z,28.00
2019-02-04T12:25:27.395Z,21.13
2019-02-04T12:27:57.802Z,22.03
2019-02-04T12:30:30.926Z,25.83
2019-02-04T12:32:59.905Z,23.83
2019-02-04T12:35:28.995Z,23.73
2019-02-04T12:37:58.187Z,18.33
2019-02-04T12:40:27.272Z,24.07
2019-02-04T12:42:56.506Z,18.60
2019-02-04T12:45:27.935Z,22.17
2019-02-04T12:48:00.696Z,28.93
2019-02-04T12:50:28.430Z,25.20
2019-02-04T12:52:57.550Z,23.43
2019-02-04T12:55:28.413Z,28.43
2019-02-04T12:57:57.533Z,22.30
2019-02-04T13:00:27.916Z,47.13
2019-02-04T13:02:57.415Z,35.08
2019-02-04T13:05:47.212Z,37.35
2019-02-04T13:08:16.393Z,19.17
2019-02-04T13:10:45.405Z,30.00
2019-02-04T13:13:16.845Z,24.13
2019-02-04T13:15:45.992Z,49.80
2019-02-04T13:18:14.967Z,38.00
2019-02-04T13:20:44.340Z,41.67
2019-02-04T13:23:13.469Z,30.33
2019-02-04T13:25:42.554Z,32.50
2019-02-04T13:28:15.423Z,26.27
2019-02-04T13:30:44.458Z,93.17
2019-02-04T13:33:13.608Z,20.77
2019-02-04T13:35:42.935Z,40.97
2019-02-04T13:38:11.977Z,52.67
2019-02-04T13:40:44.463Z,44.57
2019-02-04T13:43:16.471Z,19.77
2019-02-04T13:45:45.758Z,18.57
2019-02-04T13:48:15.108Z,18.07
2019-02-04T13:50:44.075Z,22.17
2019-02-04T13:53:13.072Z,17.13
2019-02-04T13:55:43.040Z,16.13
2019-02-04T13:58:12.174Z,17.10
2019-02-04T14:00:41.237Z,24.10
2019-02-04T14:03:10.397Z,17.43
2019-02-04T14:05:39.506Z,16.50
2019-02-04T14:08:08.572Z,15.50
2019-02-04T14:10:40.073Z,14.30
2019-02-04T14:13:09.428Z,18.23
2019-02-04T14:15:39.954Z,17.37
2019-02-04T14:18:09.608Z,19.13
2019-02-04T14:20:38.768Z,16.50
2019-02-04T14:23:07.838Z,20.40
2019-02-04T14:25:36.904Z,20.50
2019-02-04T14:28:06.489Z,31.87
2019-02-04T14:30:37.627Z,38.23
2019-02-04T14:33:07.250Z,29.47
2019-02-04T14:35:36.434Z,26.53
2019-02-04T14:38:07.648Z,30.07
2019-02-04T14:40:36.976Z,17.37
2019-02-04T14:43:19.121Z,22.20
2019-02-04T14:46:04.635Z,27.70
2019-02-04T14:48:55.867Z,31.73
2019-02-04T14:52:20.970Z,24.07
2019-02-04T14:55:00.481Z,21.53
2019-02-04T14:57:58.203Z,21.23
2019-02-04T15:01:02.023Z,39.83
2019-02-04T15:03:55.268Z,38.30
2019-02-04T15:06:42.375Z,22.10
2019-02-04T15:09:45.392Z,15.57
2019-02-04T15:12:36.332Z,14.38
2019-02-04T15:15:36.845Z,14.37
2019-02-04T15:18:24.615Z,15.93
2019-02-04T15:21:18.549Z,12.33
2019-02-04T15:24:08.743Z,12.20
2019-02-04T15:26:47.053Z,18.40
2019-02-04T15:29:55.764Z,19.63
2019-02-04T15:33:12.187Z,13.90
2019-02-04T15:36:37.359Z,9.73
2019-02-04T15:39:33.508Z,12.80
2019-02-04T15:42:57.524Z,14.83
2019-02-04T15:45:45.795Z,16.83
2019-02-04T15:48:28.599Z,12.37
2019-02-04T15:51:23.775Z,8.73
2019-02-04T15:53:53.635Z,14.47
2019-02-04T15:56:22.670Z,16.60
2019-02-04T15:58:51.772Z,22.35
2019-02-04T16:01:20.902Z,21.80
2019-02-04T16:03:49.892Z,34.53
2019-02-04T16:06:19.088Z,38.07
2019-02-04T16:08:48.600Z,41.80
2019-02-04T16:11:17.550Z,54.47
2019-02-04T16:13:46.621Z,44.27
2019-02-04T16:16:15.587Z,58.03
2019-02-04T16:18:44.611Z,61.23
2019-02-04T16:21:13.701Z,49.67
2019-02-04T16:23:43.079Z,64.47
2019-02-04T16:26:15.062Z,27.70
2019-02-04T16:28:42.983Z,15.13
2019-02-04T16:31:12.316Z,26.60
2019-02-04T16:33:41.301Z,19.20
2019-02-04T16:36:10.405Z,34.73
2019-02-04T16:38:39.703Z,42.23
2019-02-04T16:41:08.697Z,43.23
2019-02-04T16:43:37.717Z,37.60
2019-02-04T16:46:06.808Z,21.30
2019-02-04T16:48:37.056Z,14.10
2019-02-04T16:51:11.601Z,12.17
2019-02-04T16:53:36.867Z,14.23
2019-02-04T16:56:05.993Z,23.37
2019-02-04T16:58:35.112Z,23.10
2019-02-04T17:01:04.835Z,25.20
2019-02-04T17:03:33.825Z,38.67
2019-02-04T17:06:02.970Z,32.00
2019-02-04T17:08:32.498Z,30.90
2019-02-04T17:11:04.568Z,32.37
2019-02-04T17:13:33.539Z,20.17
2019-02-04T17:16:02.741Z,17.77
2019-02-04T17:18:31.886Z,14.87
2019-02-04T17:21:00.889Z,15.97
2019-02-04T17:23:30.246Z,16.70
2019-02-04T17:25:59.842Z,16.43
2019-02-04T17:28:28.876Z,27.20
2019-02-04T17:30:57.942Z,26.73
2019-02-04T17:33:26.945Z,21.60
2019-02-04T17:35:55.975Z,21.27
2019-02-04T17:38:25.557Z,20.85
2019-02-04T17:40:54.607Z,20.10
2019-02-04T17:43:23.707Z,24.80
2019-02-04T17:45:52.800Z,33.03
2019-02-04T17:48:21.969Z,53.70
2019-02-04T17:50:51.124Z,21.17
2019-02-04T17:53:20.288Z,75.97
2019-02-04T17:55:49.363Z,43.37
2019-02-04T17:58:18.496Z,62.33
2019-02-04T18:00:49.511Z,60.47
2019-02-04T18:03:20.800Z,40.37
2019-02-04T18:05:50.039Z,32.43
2019-02-04T18:08:19.072Z,26.43
2019-02-04T18:10:48.117Z,33.13
2019-02-04T18:13:17.206Z,31.60
2019-02-04T18:15:46.452Z,33.03
2019-02-04T18:18:15.577Z,43.90
2019-02-04T18:20:44.599Z,34.10
2019-02-04T18:23:15.599Z,36.43
2019-02-04T18:25:45.071Z,40.27
2019-02-04T18:28:14.226Z,29.17
2019-02-04T18:30:43.488Z,25.37
2019-02-04T18:33:12.539Z,22.80
2019-02-04T18:35:42.127Z,26.97
2019-02-04T18:38:11.228Z,26.57
2019-02-04T18:40:40.254Z,25.03
2019-02-04T18:43:09.416Z,24.77
2019-02-04T18:45:38.520Z,18.47
2019-02-04T18:48:07.694Z,20.20
2019-02-04T18:50:37.191Z,26.17
2019-02-04T18:53:06.452Z,23.20
2019-02-04T18:55:35.639Z,31.10
2019-02-04T18:58:05.382Z,25.50
2019-02-04T19:00:34.668Z,26.60
2019-02-04T19:03:16.622Z,26.37
2019-02-04T19:05:35.734Z,23.57
2019-02-04T19:08:05.613Z,30.53
2019-02-04T19:10:41.938Z,28.90
2019-02-04T19:16:55.191Z,34.30
2019-02-04T19:19:27.058Z,18.90
2019-02-04T19:21:56.036Z,17.50
2019-02-04T19:24:26.187Z,20.60
2019-02-04T19:26:55.338Z,20.03
2019-02-04T19:29:24.289Z,17.27
2019-02-04T19:31:53.295Z,17.20
2019-02-04T19:34:22.394Z,16.40
2019-02-04T19:36:51.325Z,15.27
2019-02-04T19:39:20.368Z,17.50
2019-02-04T19:41:49.421Z,20.93
2019-02-04T19:44:18.391Z,19.10
2019-02-04T19:46:50.010Z,19.37
2019-02-04T19:49:19.112Z,17.80
2019-02-04T19:51:48.169Z,19.23
2019-02-04T19:54:21.703Z,20.33
2019-02-04T19:56:47.997Z,25.13
2019-02-04T19:59:17.043Z,33.00
2019-02-04T20:01:46.029Z,58.67
2019-02-04T20:04:15.174Z,47.37
2019-02-04T20:06:44.398Z,37.63
2019-02-04T20:09:13.593Z,23.00
2019-02-04T20:11:42.706Z,29.13
2019-02-04T20:14:11.720Z,22.83
2019-02-04T20:16:40.775Z,19.43
2019-02-04T20:19:09.913Z,23.90
2019-02-04T20:21:39.100Z,26.53
2019-02-04T20:24:08.736Z,18.33
2019-02-04T20:26:37.913Z,18.07
2019-02-04T20:29:07.112Z,15.30
2019-02-04T20:31:36.267Z,14.37
2019-02-04T20:34:05.879Z,22.57
2019-02-04T20:36:34.853Z,25.80
2019-02-04T20:39:08.374Z,20.77
2019-02-04T20:41:37.340Z,17.97
2019-02-04T20:44:06.765Z,19.37
2019-02-04T20:46:35.841Z,17.33
2019-02-04T20:49:05.078Z,17.13
2019-02-04T20:51:34.190Z,15.63
2019-02-04T20:54:03.327Z,14.77
2019-02-04T20:56:33.944Z,15.37
2019-02-04T20:59:03.044Z,21.67
2019-02-04T21:01:31.977Z,35.77
2019-02-04T21:04:01.096Z,12.07
2019-02-04T21:06:30.130Z,15.63
2019-02-04T21:08:59.120Z,14.97
2019-02-04T21:11:28.156Z,14.27
2019-02-04T21:13:57.191Z,14.27
2019-02-04T21:16:26.304Z,11.77
2019-02-04T21:18:55.341Z,15.40
2019-02-04T21:21:24.455Z,12.77
2019-02-04T21:23:55.075Z,12.53
2019-02-04T21:26:24.118Z,16.30
2019-02-04T21:28:53.150Z,23.63
2019-02-04T21:31:22.324Z,20.40
2019-02-04T21:33:51.424Z,25.70
2019-02-04T21:36:20.361Z,21.80
2019-02-04T21:38:49.368Z,23.73
2019-02-04T21:41:18.300Z,27.47
2019-02-04T21:43:47.221Z,21.97
2019-02-04T21:46:16.342Z,15.70
2019-02-04T21:48:45.357Z,13.63
2019-02-04T21:51:14.308Z,17.53
2019-02-04T21:53:43.281Z,15.10
2019-02-04T21:56:12.291Z,17.57
2019-02-04T22:01:35.259Z,13.97
2019-02-04T22:04:04.979Z,21.73
2019-02-04T22:06:34.149Z,21.07
2019-02-04T22:09:08.367Z,24.30
2019-02-04T22:11:37.427Z,13.70
2019-02-04T22:14:07.047Z,11.30
2019-02-04T22:16:36.198Z,17.23
2019-02-04T22:19:05.937Z,14.60
2019-02-04T22:21:56.087Z,12.67
2019-02-04T22:24:16.869Z,11.07
2019-02-04T22:26:46.030Z,13.97
2019-02-04T22:29:17.432Z,24.13
2019-02-04T22:31:46.573Z,17.90
2019-02-04T22:34:16.019Z,12.90
2019-02-04T22:36:45.140Z,12.77
2019-02-04T22:39:14.535Z,15.77
2019-02-04T22:41:43.623Z,14.60
2019-02-04T22:44:12.697Z,21.03
2019-02-04T22:46:41.844Z,17.67
2019-02-04T22:49:11.345Z,17.50
2019-02-04T22:51:40.386Z,22.53
2019-02-04T22:54:09.910Z,17.47
2019-02-04T22:56:39.100Z,16.27
2019-02-04T22:59:08.132Z,18.40
2019-02-04T23:01:49.704Z,19.53
2019-02-04T23:04:18.794Z,15.80
2019-02-04T23:06:47.940Z,16.57
2019-02-04T23:09:17.001Z,20.00
2019-02-04T23:11:46.021Z,19.73
2019-02-04T23:14:15.142Z,14.43
2019-02-04T23:16:44.172Z,20.73
2019-02-04T23:19:13.277Z,31.07
2019-02-04T23:21:42.381Z,21.60
2019-02-04T23:24:11.480Z,24.43
2019-02-04T23:26:40.581Z,18.37
2019-02-04T23:29:09.595Z,21.27
2019-02-04T23:31:38.688Z,19.23
2019-02-04T23:34:07.636Z,17.97
2019-02-04T23:36:37.065Z,10.90
2019-02-04T23:39:08.963Z,13.17
2019-02-04T23:41:37.927Z,18.17
2019-02-04T23:44:07.260Z,9.30
2019-02-04T23:46:36.293Z,11.70
2019-02-04T23:49:05.667Z,11.57
2019-02-04T23:51:34.660Z,12.20
2019-02-04T23:54:04.236Z,12.13
2019-02-04T23:56:33.347Z,7.67
2019-02-04T23:59:02.376Z,12.07
